Time;durP1;ratioP1;P1;durP2;ratioP2;P2;SDS_P1;SDS_P2;PMS_P1;PMS_P2;Temp;Humidity;BMP_temperature;BMP_pressure;BME280_temperature;BME280_humidity;BME280_pressure;Samples;Min_cycle;Max_cycle;Signal;HPM_P1;HPM_P2
2023/07/28 00:00:57;;;;;;;114.00;82.50;;;22.00;65.20;;;;;;5053351;28;20051;-52
2023/07/28 00:03:23;;;;;;;118.15;84.85;;;22.00;64.80;;;;;;5053052;28;20024;-52
2023/07/28 00:05:49;;;;;;;109.03;76.88;;;21.90;64.70;;;;;;5053247;28;20029;-49
2023/07/28 00:08:14;;;;;;;113.20;75.95;;;21.90;65.00;;;;;;5053177;28;20025;-49
2023/07/28 00:10:42;;;;;;;106.95;79.05;;;21.90;65.00;;;;;;5053234;28;20047;-49
2023/07/28 00:13:08;;;;;;;116.30;79.35;;;21.90;64.70;;;;;;5053053;28;20029;-51
2023/07/28 00:15:34;;;;;;;106.82;76.03;;;22.00;64.80;;;;;;5053300;28;20526;-50
2023/07/28 00:18:01;;;;;;;110.25;73.88;;;21.90;65.00;;;;;;5053139;28;20449;-56
2023/07/28 00:20:28;;;;;;;100.72;70.82;;;22.00;65.00;;;;;;5053041;28;20582;-55
2023/07/28 00:22:54;;;;;;;94.20;65.45;;;22.00;64.90;;;;;;5053033;28;20052;-55
2023/07/28 00:25:19;;;;;;;92.97;68.63;;;21.90;65.00;;;;;;5052648;28;20035;-56
2023/07/28 00:27:45;;;;;;;97.32;69.25;;;22.00;65.00;;;;;;5052673;28;20064;-56
2023/07/28 00:30:12;;;;;;;97.70;67.20;;;21.90;64.90;;;;;;5052855;28;20032;-55
2023/07/28 00:32:38;;;;;;;92.20;67.00;;;21.90;65.00;;;;;;5052963;28;20408;-55
2023/07/28 00:35:04;;;;;;;89.70;62.78;;;21.90;65.00;;;;;;5052440;28;20021;-55
2023/07/28 00:37:30;;;;;;;86.50;62.08;;;22.00;65.10;;;;;;5034881;28;20112;-51
2023/07/28 00:39:56;;;;;;;94.95;67.40;;;21.90;65.10;;;;;;5052145;28;20480;-55
2023/07/28 00:42:22;;;;;;;90.10;65.05;;;22.00;65.00;;;;;;5034757;28;20108;-56
2023/07/28 00:44:47;;;;;;;81.30;59.40;;;21.90;64.90;;;;;;5052340;28;20408;-54
2023/07/28 00:47:15;;;;;;;91.53;66.68;;;22.00;65.00;;;;;;5052506;28;21374;-56
2023/07/28 00:49:40;;;;;;;82.57;61.58;;;22.00;64.80;;;;;;5052575;28;20589;-54
2023/07/28 00:52:09;;;;;;;85.10;63.17;;;22.00;64.90;;;;;;5052565;28;20048;-52
2023/07/28 00:54:35;;;;;;;87.45;62.45;;;22.00;64.80;;;;;;5034277;28;20039;-56
2023/07/28 00:57:04;;;;;;;85.70;60.38;;;22.00;64.60;;;;;;5052148;28;20508;-51
2023/07/28 00:59:31;;;;;;;85.45;61.88;;;22.00;64.80;;;;;;5034631;28;20100;-50
2023/07/28 01:01:57;;;;;;;90.30;58.78;;;22.00;64.70;;;;;;5052269;28;20021;-54
2023/07/28 01:04:23;;;;;;;79.20;56.78;;;22.00;64.90;;;;;;5051815;28;20025;-55
2023/07/28 01:07:03;;;;;;;74.30;54.70;;;22.00;65.00;;;;;;5052105;28;20504;-53
2023/07/28 01:09:36;;;;;;;76.45;55.33;;;22.00;64.70;;;;;;5052104;28;20029;-53
2023/07/28 01:12:07;;;;;;;78.60;56.05;;;22.00;64.60;;;;;;5052289;28;20451;-55
2023/07/28 01:14:33;;;;;;;76.95;53.70;;;22.00;64.80;;;;;;5051799;28;20098;-51
2023/07/28 01:16:59;;;;;;;71.60;50.95;;;22.00;65.00;;;;;;5051896;28;20021;-51
2023/07/28 01:19:24;;;;;;;77.07;52.25;;;22.00;65.10;;;;;;5051878;28;20025;-54
2023/07/28 01:22:03;;;;;;;69.32;49.00;;;22.00;65.00;;;;;;5052228;28;20029;-55
2023/07/28 01:24:47;;;;;;;76.80;52.60;;;22.00;64.70;;;;;;5051847;28;20033;-55
2023/07/28 01:27:13;;;;;;;72.50;48.85;;;22.00;64.90;;;;;;5051847;28;20025;-55
2023/07/28 01:29:39;;;;;;;75.45;50.35;;;22.00;65.00;;;;;;5034233;28;20032;-53
2023/07/28 01:32:05;;;;;;;68.78;47.63;;;22.00;64.80;;;;;;5051853;28;20032;-52
2023/07/28 01:34:31;;;;;;;69.15;49.88;;;22.00;65.00;;;;;;5051496;28;20025;-51
2023/07/28 01:36:57;;;;;;;64.68;46.70;;;22.00;65.10;;;;;;5051593;28;20418;-54
2023/07/28 01:39:23;;;;;;;59.97;42.83;;;22.00;65.10;;;;;;5051809;28;20029;-52
2023/07/28 01:41:49;;;;;;;63.22;45.25;;;22.00;65.20;;;;;;5051832;28;20024;-54
2023/07/28 01:44:15;;;;;;;57.33;42.30;;;21.90;65.20;;;;;;5051560;28;20032;-55
2023/07/28 01:46:40;;;;;;;61.42;43.17;;;21.90;65.30;;;;;;5033944;28;20029;-55
2023/07/28 01:49:06;;;;;;;53.97;40.63;;;22.00;65.40;;;;;;5051583;28;20108;-53
2023/07/28 01:51:32;;;;;;;57.95;41.33;;;21.90;65.30;;;;;;5050897;28;20488;-51
2023/07/28 01:53:58;;;;;;;57.78;41.17;;;21.90;65.40;;;;;;5051369;28;20025;-53
2023/07/28 01:56:24;;;;;;;56.83;39.10;;;21.90;65.30;;;;;;5051443;28;20428;-54
2023/07/28 01:58:49;;;;;;;52.45;39.88;;;21.90;65.40;;;;;;5033778;28;20021;-52
2023/07/28 02:01:16;;;;;;;53.90;37.20;;;22.00;65.40;;;;;;5033764;28;20493;-56
2023/07/28 02:03:41;;;;;;;56.00;36.80;;;21.90;65.40;;;;;;5033536;28;20040;-54
2023/07/28 02:06:07;;;;;;;53.05;37.20;;;21.90;65.50;;;;;;5038645;28;20037;-56
2023/07/28 02:08:33;;;;;;;55.00;36.75;;;21.90;65.50;;;;;;5031401;28;20033;-51
2023/07/28 02:10:59;;;;;;;51.45;35.80;;;21.90;65.40;;;;;;5031442;28;20029;-49
2023/07/28 02:13:25;;;;;;;52.63;36.08;;;21.90;65.50;;;;;;5013552;28;20473;-51
2023/07/28 02:15:50;;;;;;;48.67;34.55;;;21.90;65.50;;;;;;5013743;28;20068;-49
2023/07/28 02:18:16;;;;;;;48.78;33.85;;;21.90;65.50;;;;;;5031106;28;20056;-52
2023/07/28 02:20:42;;;;;;;45.85;32.67;;;21.90;65.50;;;;;;5031290;28;20021;-51
2023/07/28 02:23:08;;;;;;;47.95;33.10;;;21.90;65.60;;;;;;5031469;28;20052;-51
2023/07/28 02:25:33;;;;;;;47.75;32.75;;;21.90;66.10;;;;;;5031079;28;20148;-53
2023/07/28 02:27:59;;;;;;;45.85;32.42;;;21.90;65.50;;;;;;5013484;28;20409;-51
2023/07/28 02:30:25;;;;;;;48.15;32.75;;;21.90;65.60;;;;;;5013602;28;20025;-51
2023/07/28 02:32:51;;;;;;;43.90;30.08;;;21.90;65.60;;;;;;5031165;28;20026;-51
2023/07/28 02:35:17;;;;;;;48.85;34.15;;;21.90;65.60;;;;;;5030917;28;20402;-52
2023/07/28 02:37:43;;;;;;;45.47;30.75;;;21.90;65.50;;;;;;5031033;28;20038;-56
2023/07/28 02:40:09;;;;;;;41.85;28.67;;;21.90;65.70;;;;;;5031194;28;20397;-51
2023/07/28 02:42:35;;;;;;;42.10;28.80;;;21.90;65.70;;;;;;5031139;28;20026;-55
2023/07/28 02:45:02;;;;;;;43.17;29.75;;;21.90;65.70;;;;;;5013350;28;20032;-54
2023/07/28 02:47:28;;;;;;;41.80;29.73;;;21.90;65.70;;;;;;5031428;28;20057;-49
2023/07/28 02:49:53;;;;;;;39.53;27.35;;;21.90;65.60;;;;;;5031301;28;20469;-52
2023/07/28 02:52:19;;;;;;;40.28;28.05;;;21.90;65.70;;;;;;5031141;28;20029;-49
2023/07/28 02:54:45;;;;;;;41.58;26.27;;;21.90;65.70;;;;;;5013316;28;20026;-49
2023/07/28 02:57:11;;;;;;;37.08;26.38;;;21.90;65.80;;;;;;5030972;28;20405;-52
2023/07/28 02:59:41;;;;;;;37.33;25.90;;;21.90;65.80;;;;;;5013460;28;20033;-49
2023/07/28 03:02:07;;;;;;;37.88;26.52;;;21.90;65.80;;;;;;5014482;28;20061;-49
2023/07/28 03:04:33;;;;;;;35.92;25.38;;;21.90;65.80;;;;;;5034683;28;20091;-51
2023/07/28 03:07:17;;;;;;;34.55;25.00;;;21.90;65.70;;;;;;5034745;28;20102;-50
2023/07/28 03:09:47;;;;;;;35.20;24.75;;;21.90;65.70;;;;;;5017070;28;20026;-49
2023/07/28 03:12:13;;;;;;;37.67;24.77;;;21.90;65.80;;;;;;5016943;28;20034;-49
2023/07/28 03:14:39;;;;;;;34.17;24.60;;;21.90;65.80;;;;;;5016626;28;20366;-51
2023/07/28 03:17:05;;;;;;;37.30;26.85;;;21.90;65.80;;;;;;5034441;28;20033;-50
2023/07/28 03:19:31;;;;;;;33.25;24.08;;;21.90;65.80;;;;;;5016789;28;20080;-50
2023/07/28 03:21:57;;;;;;;33.08;24.40;;;21.90;65.80;;;;;;5016944;28;20481;-49
2023/07/28 03:24:23;;;;;;;33.08;23.35;;;21.90;65.80;;;;;;5016594;28;20080;-48
2023/07/28 03:26:48;;;;;;;34.97;24.80;;;21.90;65.80;;;;;;5034371;28;20029;-49
2023/07/28 03:29:14;;;;;;;35.30;23.52;;;21.90;65.80;;;;;;5016431;28;20079;-49
2023/07/28 03:31:40;;;;;;;32.47;22.95;;;21.90;65.80;;;;;;5016553;28;20112;-49
2023/07/28 03:34:07;;;;;;;32.10;22.08;;;21.90;65.70;;;;;;5016239;28;20087;-51
2023/07/28 03:36:33;;;;;;;27.77;20.77;;;21.90;65.80;;;;;;5016618;28;20501;-52
2023/07/28 03:38:59;;;;;;;31.73;20.92;;;21.90;65.70;;;;;;5016423;28;20021;-52
2023/07/28 03:41:26;;;;;;;30.50;20.80;;;21.90;65.70;;;;;;5016407;28;20026;-49
2023/07/28 03:43:52;;;;;;;29.33;21.05;;;21.90;65.80;;;;;;5033699;28;20021;-51
2023/07/28 03:46:17;;;;;;;29.52;20.42;;;21.90;65.70;;;;;;5034170;28;20504;-51
2023/07/28 03:48:43;;;;;;;31.73;21.67;;;21.90;65.70;;;;;;5016149;28;20040;-51
2023/07/28 03:51:09;;;;;;;32.33;21.67;;;21.90;65.70;;;;;;5016264;28;20029;-51
2023/07/28 03:53:35;;;;;;;29.17;20.55;;;21.90;65.70;;;;;;5015967;28;20428;-51
2023/07/28 03:56:02;;;;;;;27.85;18.33;;;21.90;65.70;;;;;;5015971;28;20048;-50
2023/07/28 03:58:28;;;;;;;27.67;18.58;;;21.90;65.80;;;;;;5033900;28;20393;-52
2023/07/28 04:00:53;;;;;;;28.17;19.45;;;21.90;65.80;;;;;;5033669;28;20233;-53
2023/07/28 04:03:20;;;;;;;28.33;18.80;;;21.90;65.80;;;;;;5015993;28;20034;-49
2023/07/28 04:05:45;;;;;;;24.73;17.60;;;21.90;65.80;;;;;;5016116;28;20049;-50
2023/07/28 04:08:11;;;;;;;28.27;19.33;;;21.90;65.70;;;;;;5033575;28;20082;-49
2023/07/28 04:10:37;;;;;;;26.05;19.05;;;21.90;65.80;;;;;;5015833;28;20033;-54
2023/07/28 04:13:03;;;;;;;26.50;18.83;;;21.90;65.80;;;;;;5015100;28;20036;-50
2023/07/28 04:15:29;;;;;;;25.88;18.58;;;21.90;65.80;;;;;;5032974;28;20044;-49
2023/07/28 04:17:54;;;;;;;25.10;17.75;;;21.90;65.80;;;;;;5033266;28;20025;-56
2023/07/28 04:20:20;;;;;;;23.95;17.70;;;21.90;65.80;;;;;;5033456;28;20036;-54
2023/07/28 04:22:47;;;;;;;26.13;17.45;;;21.90;65.90;;;;;;5033286;28;20108;-51
2023/07/28 04:25:12;;;;;;;26.77;17.73;;;21.90;65.90;;;;;;5015641;28;20028;-52
2023/07/28 04:27:42;;;;;;;24.95;16.92;;;21.90;65.90;;;;;;5015424;28;20037;-54
2023/07/28 04:30:09;;;;;;;25.45;17.90;;;21.90;66.00;;;;;;5015388;28;20037;-50
2023/07/28 04:32:35;;;;;;;26.90;17.38;;;21.90;65.90;;;;;;5033108;28;20057;-51
2023/07/28 04:35:09;;;;;;;23.50;16.08;;;21.90;65.90;;;;;;5000141;28;20030;-54
2023/07/28 04:37:41;;;;;;;26.50;17.52;;;21.90;66.00;;;;;;5015260;28;20029;-53
2023/07/28 04:40:08;;;;;;;24.50;16.88;;;21.90;66.00;;;;;;5015406;28;20041;-53
2023/07/28 04:42:36;;;;;;;23.65;16.55;;;21.90;66.10;;;;;;5015313;28;20059;-53
2023/07/28 04:45:04;;;;;;;23.30;16.00;;;21.90;66.10;;;;;;5015042;28;20040;-55
2023/07/28 04:47:31;;;;;;;25.23;17.02;;;21.90;66.10;;;;;;5015235;28;20501;-56
2023/07/28 04:49:58;;;;;;;24.33;15.68;;;21.90;66.10;;;;;;5015246;28;20087;-53
2023/07/28 04:52:42;;;;;;;21.58;15.65;;;21.90;66.10;;;;;;5032729;28;20087;-54
2023/07/28 04:55:26;;;;;;;22.25;15.45;;;21.90;66.10;;;;;;5032431;28;20033;-54
2023/07/28 04:57:53;;;;;;;23.52;15.55;;;21.90;66.20;;;;;;5014835;28;20037;-56
2023/07/28 05:00:21;;;;;;;24.13;15.30;;;21.90;66.10;;;;;;5014905;28;20027;-56
2023/07/28 05:02:47;;;;;;;20.85;14.85;;;21.90;66.20;;;;;;5014784;28;20027;-53
2023/07/28 05:05:12;;;;;;;25.30;14.88;;;21.90;66.20;;;;;;5014631;28;20397;-50
2023/07/28 05:07:38;;;;;;;25.63;15.55;;;21.90;66.30;;;;;;5032519;28;20025;-53
2023/07/28 05:10:05;;;;;;;22.70;14.95;;;21.90;66.40;;;;;;5014766;28;20500;-52
2023/07/28 05:12:30;;;;;;;22.35;14.80;;;21.90;66.30;;;;;;4998480;28;20044;-54
2023/07/28 05:14:56;;;;;;;23.33;15.00;;;21.90;66.30;;;;;;5014333;28;20547;-51
2023/07/28 05:17:22;;;;;;;25.10;14.55;;;21.90;66.30;;;;;;5014438;28;20120;-56
2023/07/28 05:20:12;;;;;;;21.20;14.45;;;21.90;66.30;;;;;;5014533;28;20029;-53
2023/07/28 05:22:45;;;;;;;22.08;14.95;;;21.90;66.30;;;;;;5014581;28;20448;-54
2023/07/28 05:25:11;;;;;;;20.70;13.40;;;21.90;66.30;;;;;;5014295;28;20393;-54
2023/07/28 05:27:40;;;;;;;20.75;14.35;;;21.90;66.30;;;;;;5014258;28;20183;-53
2023/07/28 05:30:07;;;;;;;20.33;13.63;;;21.90;66.30;;;;;;5014295;28;20124;-49
2023/07/28 05:32:33;;;;;;;19.33;13.52;;;21.90;66.30;;;;;;5032041;28;20448;-52
2023/07/28 05:35:22;;;;;;;22.48;14.35;;;21.90;66.30;;;;;;5025912;28;20046;-49
2023/07/28 05:37:47;;;;;;;19.00;13.27;;;21.90;66.40;;;;;;5014099;28;20540;-52
2023/07/28 05:40:14;;;;;;;21.85;14.27;;;21.90;66.30;;;;;;5014240;28;20025;-49
2023/07/28 05:42:40;;;;;;;18.25;12.98;;;21.90;66.30;;;;;;5014381;28;20029;-54
2023/07/28 05:45:06;;;;;;;22.70;13.48;;;21.90;66.40;;;;;;5013921;28;20045;-49
2023/07/28 05:47:32;;;;;;;22.13;14.10;;;21.90;66.40;;;;;;5014234;28;20026;-52
2023/07/28 05:49:58;;;;;;;20.35;13.50;;;21.90;66.50;;;;;;5014220;28;20037;-50
2023/07/28 05:52:24;;;;;;;20.52;13.85;;;21.90;66.40;;;;;;5014426;28;20102;-51
2023/07/28 05:54:50;;;;;;;22.50;13.90;;;21.90;66.40;;;;;;5013848;28;20061;-49
2023/07/28 05:57:16;;;;;;;20.80;13.30;;;21.90;66.50;;;;;;5014148;28;20412;-51
2023/07/28 05:59:42;;;;;;;19.13;13.20;;;21.90;66.40;;;;;;5014004;28;20025;-54
2023/07/28 06:02:08;;;;;;;20.27;13.13;;;21.90;66.50;;;;;;5014126;28;20101;-50
2023/07/28 06:04:42;;;;;;;19.85;13.52;;;21.90;67.10;;;;;;5013227;28;20026;-49
2023/07/28 06:07:09;;;;;;;22.63;13.70;;;21.90;66.40;;;;;;5014123;28;20564;-49
2023/07/28 06:09:35;;;;;;;21.35;13.60;;;21.90;66.50;;;;;;5014202;28;20420;-51
2023/07/28 06:12:02;;;;;;;19.48;12.90;;;21.90;66.40;;;;;;5013923;28;20032;-51
2023/07/28 06:14:27;;;;;;;18.75;12.50;;;21.90;66.40;;;;;;5013705;28;20056;-51
2023/07/28 06:16:58;;;;;;;18.90;12.43;;;21.90;66.50;;;;;;5013771;28;20038;-49
2023/07/28 06:19:28;;;;;;;20.90;13.70;;;21.90;66.40;;;;;;4997447;28;20451;-54
2023/07/28 06:21:54;;;;;;;19.60;12.93;;;21.90;66.40;;;;;;4997601;28;20079;-52
2023/07/28 06:24:21;;;;;;;19.92;13.48;;;21.90;66.50;;;;;;5013592;28;20040;-54
2023/07/28 06:26:47;;;;;;;20.48;13.43;;;21.90;66.40;;;;;;5013818;28;20029;-50
2023/07/28 06:29:12;;;;;;;21.02;12.18;;;21.90;66.30;;;;;;5031302;28;20546;-50
2023/07/28 06:31:38;;;;;;;19.65;13.02;;;21.90;66.50;;;;;;5013808;28;20497;-53
2023/07/28 06:34:04;;;;;;;19.27;12.43;;;21.90;66.40;;;;;;5031173;28;20040;-53
2023/07/28 06:36:30;;;;;;;17.98;12.27;;;21.90;66.50;;;;;;5013922;28;20041;-51
2023/07/28 06:38:56;;;;;;;19.73;12.65;;;21.90;66.40;;;;;;5017605;28;20022;-50
2023/07/28 06:41:22;;;;;;;19.67;12.52;;;21.90;66.40;;;;;;5035273;28;20478;-52
2023/07/28 06:43:55;;;;;;;20.20;12.45;;;21.90;66.50;;;;;;5017311;28;20026;-52
2023/07/28 06:46:20;;;;;;;21.75;12.50;;;21.90;66.40;;;;;;5017502;28;20151;-52
2023/07/28 06:48:46;;;;;;;18.50;12.32;;;21.90;66.40;;;;;;5017601;28;20033;-51
2023/07/28 06:51:15;;;;;;;20.08;13.02;;;21.90;66.50;;;;;;5017453;28;20033;-49
2023/07/28 06:53:41;;;;;;;18.20;12.30;;;21.90;66.40;;;;;;5034866;28;20033;-51
2023/07/28 06:56:07;;;;;;;20.55;12.32;;;21.90;66.50;;;;;;5035075;28;20033;-52
2023/07/28 06:58:33;;;;;;;18.77;12.45;;;21.90;66.40;;;;;;5017306;28;20033;-55
2023/07/28 07:00:59;;;;;;;18.58;12.60;;;21.90;66.50;;;;;;5017223;28;20021;-51
2023/07/28 07:03:25;;;;;;;19.20;12.20;;;21.90;66.50;;;;;;5034552;28;20021;-52
2023/07/28 07:05:51;;;;;;;17.35;12.48;;;21.90;66.60;;;;;;5001022;28;20068;-50
2023/07/28 07:08:16;;;;;;;18.58;12.05;;;21.90;66.40;;;;;;5034876;28;20056;-53
2023/07/28 07:10:50;;;;;;;17.83;11.88;;;21.90;66.60;;;;;;5034804;28;20040;-48
2023/07/28 07:13:16;;;;;;;19.13;12.50;;;21.90;66.60;;;;;;5034709;28;20033;-50
2023/07/28 07:15:42;;;;;;;20.33;12.25;;;21.90;66.60;;;;;;5016723;28;20037;-51
2023/07/28 07:18:07;;;;;;;18.58;12.00;;;21.90;66.30;;;;;;5034276;28;20042;-51
2023/07/28 07:20:38;;;;;;;17.40;12.02;;;21.90;66.50;;;;;;5034490;28;20021;-53
2023/07/28 07:23:07;;;;;;;16.35;11.27;;;21.90;66.60;;;;;;5034495;28;20040;-49
2023/07/28 07:25:33;;;;;;;18.35;11.90;;;21.90;66.60;;;;;;5016563;28;20050;-49
2023/07/28 07:28:02;;;;;;;19.15;12.52;;;21.90;66.60;;;;;;5034138;28;20033;-50
2023/07/28 07:30:28;;;;;;;16.40;11.95;;;21.90;66.60;;;;;;5034451;28;20112;-51
2023/07/28 07:32:53;;;;;;;19.98;11.85;;;21.90;66.60;;;;;;5034333;28;20040;-54
2023/07/28 07:35:19;;;;;;;20.98;11.80;;;21.90;66.50;;;;;;5033943;28;20401;-51
2023/07/28 07:37:45;;;;;;;17.52;12.05;;;21.90;66.50;;;;;;5034086;28;20098;-51
2023/07/28 07:40:11;;;;;;;20.17;12.23;;;21.90;66.50;;;;;;5034083;28;20045;-54
2023/07/28 07:42:48;;;;;;;18.77;11.73;;;21.90;66.60;;;;;;5034210;28;20069;-54
2023/07/28 07:45:15;;;;;;;17.67;11.32;;;21.90;66.40;;;;;;5016059;28;20288;-56
2023/07/28 07:47:41;;;;;;;16.85;11.45;;;21.90;66.50;;;;;;5033336;28;20539;-52
2023/07/28 07:50:09;;;;;;;19.60;12.65;;;21.90;66.60;;;;;;5033676;28;20512;-53
2023/07/28 07:52:35;;;;;;;15.57;10.77;;;21.90;66.50;;;;;;5033959;28;20516;-54
2023/07/28 07:55:02;;;;;;;17.65;11.88;;;21.90;66.40;;;;;;5033584;28;20026;-55
2023/07/28 07:57:28;;;;;;;17.33;11.20;;;21.90;66.50;;;;;;5034117;28;20126;-55
2023/07/28 07:59:54;;;;;;;18.10;11.48;;;21.90;67.10;;;;;;5033667;28;20033;-51
2023/07/28 08:02:20;;;;;;;19.67;12.55;;;21.90;66.60;;;;;;5033733;28;20033;-55
2023/07/28 08:04:46;;;;;;;20.25;11.25;;;21.90;66.50;;;;;;5033408;28;20029;-56
2023/07/28 08:07:12;;;;;;;20.40;11.75;;;21.90;66.50;;;;;;5033570;28;20022;-56
2023/07/28 08:09:38;;;;;;;19.80;11.55;;;22.00;66.50;;;;;;5033544;28;20611;-53
2023/07/28 08:12:04;;;;;;;16.33;11.10;;;21.90;66.50;;;;;;5033538;28;20029;-50
2023/07/28 08:14:30;;;;;;;17.10;10.88;;;22.00;66.50;;;;;;5033766;28;20057;-56
2023/07/28 08:16:56;;;;;;;17.02;11.65;;;21.90;66.40;;;;;;5033262;28;20497;-54
2023/07/28 08:19:21;;;;;;;18.38;11.70;;;22.00;66.40;;;;;;5015482;28;20021;-50
2023/07/28 08:21:47;;;;;;;15.95;11.15;;;22.00;66.30;;;;;;5033327;28;20516;-49
2023/07/28 08:24:13;;;;;;;18.58;12.13;;;22.00;66.40;;;;;;5032932;28;20018;-51
2023/07/28 08:26:39;;;;;;;16.90;11.48;;;22.00;66.40;;;;;;5033224;28;20497;-53
2023/07/28 08:29:05;;;;;;;15.98;10.68;;;22.00;66.40;;;;;;5032985;28;20056;-51
2023/07/28 08:31:30;;;;;;;17.60;10.75;;;22.00;66.50;;;;;;5033147;28;20434;-52
2023/07/28 08:33:56;;;;;;;18.23;11.13;;;22.00;66.80;;;;;;5032870;28;20155;-49
2023/07/28 08:36:22;;;;;;;17.38;10.95;;;22.00;66.50;;;;;;5028489;28;20444;-49
2023/07/28 08:38:48;;;;;;;19.42;10.95;;;22.00;66.60;;;;;;5023441;28;20060;-49
2023/07/28 08:41:14;;;;;;;19.85;10.85;;;22.00;66.80;;;;;;4994604;28;20063;-47
2023/07/28 08:43:40;;;;;;;22.13;10.40;;;22.00;66.80;;;;;;5028783;28;20029;-48
2023/07/28 08:46:06;;;;;;;23.90;10.63;;;22.00;66.60;;;;;;5029426;28;20508;-48
2023/07/28 08:48:32;;;;;;;22.95;11.85;;;22.00;66.60;;;;;;5029506;28;20026;-48
2023/07/28 08:50:58;;;;;;;16.92;10.40;;;22.00;66.40;;;;;;5029260;28;20041;-48
2023/07/28 08:53:24;;;;;;;20.40;10.82;;;22.10;67.80;;;;;;5029922;28;20017;-51
2023/07/28 08:55:49;;;;;;;22.98;11.57;;;22.20;68.50;;;;;;5029939;28;20068;-47
2023/07/28 08:58:17;;;;;;;22.40;10.48;;;22.20;67.90;;;;;;5027903;28;20409;-50
2023/07/28 09:00:44;;;;;;;24.33;9.98;;;22.20;67.00;;;;;;5028959;28;20046;-50
2023/07/28 09:03:10;;;;;;;20.95;10.48;;;22.30;68.60;;;;;;5029633;28;20026;-50
2023/07/28 09:05:36;;;;;;;24.20;9.00;;;22.30;67.40;;;;;;5029212;28;20060;-48
2023/07/28 09:08:01;;;;;;;28.17;9.80;;;22.30;70.10;;;;;;5025376;28;20456;-48
2023/07/28 09:10:42;;;;;;;17.80;9.05;;;22.30;69.10;;;;;;5028069;28;20289;-49
2023/07/28 09:13:15;;;;;;;17.48;9.95;;;22.30;69.50;;;;;;5028687;28;20059;-48
2023/07/28 09:15:41;;;;;;;15.93;8.10;;;22.30;70.20;;;;;;5028026;28;20034;-51
2023/07/28 09:18:12;;;;;;;17.52;6.35;;;22.30;69.80;;;;;;5029255;28;20033;-53
2023/07/28 09:20:43;;;;;;;14.35;6.88;;;22.30;70.60;;;;;;5030665;28;20072;-52
2023/07/28 09:23:10;;;;;;;12.00;6.22;;;22.30;70.30;;;;;;5028058;28;20571;-50
2023/07/28 09:25:37;;;;;;;16.65;5.20;;;22.30;70.50;;;;;;5025156;28;20021;-50
2023/07/28 09:28:04;;;;;;;8.65;4.20;;;22.30;70.70;;;;;;5027999;28;20120;-50
2023/07/28 09:30:49;;;;;;;6.90;3.95;;;22.30;71.00;;;;;;5030458;28;20527;-51
2023/07/28 09:33:31;;;;;;;7.30;4.18;;;22.40;70.90;;;;;;5028812;28;20063;-54
2023/07/28 09:36:09;;;;;;;9.43;3.45;;;22.40;70.60;;;;;;5024511;28;20602;-47
2023/07/28 09:38:38;;;;;;;7.72;3.60;;;22.40;71.30;;;;;;5029036;28;20028;-48
2023/07/28 09:41:09;;;;;;;8.90;3.00;;;22.30;71.10;;;;;;5026047;28;20148;-51
2023/07/28 09:43:39;;;;;;;6.75;2.60;;;22.40;71.60;;;;;;5028491;28;20515;-49
2023/07/28 09:46:07;;;;;;;5.80;2.55;;;22.40;71.60;;;;;;5027054;28;20036;-49
2023/07/28 09:48:36;;;;;;;10.30;2.50;;;22.40;72.90;;;;;;5023764;28;20073;-48
2023/07/28 09:51:12;;;;;;;6.88;2.55;;;22.40;72.00;;;;;;5027804;28;20087;-52
2023/07/28 09:53:45;;;;;;;3.25;2.17;;;22.40;72.30;;;;;;5033556;28;20511;-48
2023/07/28 09:56:15;;;;;;;4.78;2.45;;;22.30;71.50;;;;;;5009563;28;20041;-49
2023/07/28 09:58:45;;;;;;;3.65;2.30;;;22.30;71.70;;;;;;5033466;28;20595;-50
2023/07/28 10:01:11;;;;;;;4.75;2.30;;;22.30;71.60;;;;;;5027474;28;20021;-50
2023/07/28 10:03:37;;;;;;;5.47;2.13;;;22.30;71.40;;;;;;5031846;28;20031;-50
2023/07/28 10:06:03;;;;;;;8.38;2.20;;;22.20;71.70;;;;;;5013606;28;20079;-49
2023/07/28 10:08:30;;;;;;;2.25;1.75;;;22.20;73.20;;;;;;5032603;28;20032;-47
2023/07/28 10:10:56;;;;;;;8.27;1.80;;;22.20;72.80;;;;;;5027026;28;20447;-52
2023/07/28 10:13:22;;;;;;;6.10;2.15;;;22.30;73.70;;;;;;5026906;28;20119;-49
2023/07/28 10:15:49;;;;;;;2.97;2.00;;;22.20;72.80;;;;;;5032007;28;20092;-51
2023/07/28 10:18:15;;;;;;;3.92;2.03;;;22.30;72.70;;;;;;5027376;28;20409;-50
2023/07/28 10:20:43;;;;;;;5.60;1.63;;;22.20;73.20;;;;;;5028658;28;20044;-50
2023/07/28 10:23:16;;;;;;;5.50;1.77;;;22.30;72.40;;;;;;5027816;28;20498;-51
2023/07/28 10:25:43;;;;;;;9.13;2.58;;;22.30;72.20;;;;;;5023124;28;20021;-49
2023/07/28 10:28:35;;;;;;;4.32;1.80;;;22.30;72.10;;;;;;5027343;28;20080;-49
2023/07/28 10:31:02;;;;;;;13.43;2.05;;;22.30;72.00;;;;;;5055203;23;20061;-51
2023/07/28 10:33:36;;;;;;;6.70;1.92;;;22.30;72.40;;;;;;5038739;28;20123;-53
2023/07/28 10:36:18;;;;;;;8.30;2.13;;;22.20;73.40;;;;;;5039292;28;20107;-51
2023/07/28 10:38:44;;;;;;;3.20;1.80;;;22.20;72.80;;;;;;5033279;28;20126;-44
2023/07/28 10:41:16;;;;;;;6.72;2.00;;;22.20;73.10;;;;;;5041143;28;20021;-46
2023/07/28 10:43:43;;;;;;;4.55;1.83;;;22.20;72.10;;;;;;5034588;28;20468;-44
2023/07/28 10:46:13;;;;;;;7.47;1.88;;;22.20;72.70;;;;;;5038986;28;20025;-47
2023/07/28 10:48:47;;;;;;;4.90;1.73;;;22.20;74.70;;;;;;5028062;28;20029;-44
2023/07/28 10:51:28;;;;;;;7.05;1.85;;;22.20;73.80;;;;;;5029124;28;20018;-45
2023/07/28 10:53:57;;;;;;;6.63;2.55;;;22.20;73.70;;;;;;5023996;28;20108;-44
2023/07/28 10:56:24;;;;;;;4.78;1.85;;;22.20;73.80;;;;;;5028018;28;20456;-46
2023/07/28 10:58:58;;;;;;;3.47;1.83;;;22.20;73.00;;;;;;5028237;28;20030;-44
2023/07/28 11:01:44;;;;;;;5.05;2.13;;;22.20;72.90;;;;;;5040336;28;20029;-50
2023/07/28 11:04:10;;;;;;;3.58;1.90;;;22.20;73.60;;;;;;5027381;28;20036;-44
2023/07/28 11:06:39;;;;;;;6.93;2.00;;;22.20;73.10;;;;;;5028452;28;20034;-43
2023/07/28 11:09:09;;;;;;;5.07;1.97;;;22.20;72.90;;;;;;5027775;28;20091;-49
2023/07/28 11:11:39;;;;;;;2.78;1.63;;;22.30;72.90;;;;;;5024008;28;20070;-47
2023/07/28 11:14:09;;;;;;;6.60;2.28;;;22.30;73.50;;;;;;5027667;28;20068;-46
2023/07/28 11:16:41;;;;;;;4.65;1.98;;;22.30;73.00;;;;;;5027954;28;20033;-46
2023/07/28 11:19:12;;;;;;;5.68;2.15;;;22.30;73.50;;;;;;5024904;28;20052;-44
2023/07/28 11:21:39;;;;;;;6.00;1.77;;;22.30;74.30;;;;;;5027746;28;20121;-45
2023/07/28 11:24:06;;;;;;;10.60;2.20;;;22.30;74.30;;;;;;5030639;28;20022;-44
2023/07/28 11:26:34;;;;;;;7.32;2.17;;;22.30;74.40;;;;;;5034037;28;20028;-45
2023/07/28 11:29:00;;;;;;;5.35;2.10;;;22.30;74.40;;;;;;5051664;28;20536;-44
2023/07/28 11:31:26;;;;;;;9.20;2.00;;;22.30;74.40;;;;;;5038956;28;20033;-46
2023/07/28 11:33:55;;;;;;;3.45;1.63;;;22.30;74.40;;;;;;5051629;28;20524;-44
2023/07/28 11:36:25;;;;;;;7.35;2.10;;;22.30;74.20;;;;;;5025536;28;20049;-49
2023/07/28 11:38:53;;;;;;;12.35;2.20;;;22.30;73.90;;;;;;5031745;28;20030;-44
2023/07/28 11:41:21;;;;;;;5.22;2.20;;;22.30;73.80;;;;;;5031105;28;20029;-44
2023/07/28 11:43:50;;;;;;;5.78;2.50;;;22.40;73.50;;;;;;5031533;28;20053;-44
2023/07/28 11:46:35;;;;;;;7.25;2.30;;;22.40;73.30;;;;;;5031448;28;20029;-44
2023/07/28 11:49:10;;;;;;;5.28;2.30;;;22.40;73.30;;;;;;5032015;28;20030;-46
2023/07/28 11:51:47;;;;;;;11.05;2.03;;;22.40;73.40;;;;;;5031133;28;20029;-47
2023/07/28 11:54:15;;;;;;;6.22;2.22;;;22.40;72.80;;;;;;5027223;28;20497;-44
2023/07/28 11:56:45;;;;;;;4.97;2.08;;;22.40;73.10;;;;;;4997507;28;20095;-46
2023/07/28 11:59:14;;;;;;;6.57;2.05;;;22.40;73.30;;;;;;5012352;28;20033;-44
2023/07/28 12:01:56;;;;;;;3.70;2.20;;;22.30;72.50;;;;;;4977550;28;20070;-44
2023/07/28 12:04:23;;;;;;;7.47;2.28;;;22.40;72.90;;;;;;5012702;28;20057;-45
2023/07/28 12:07:12;;;;;;;7.22;2.30;;;22.30;73.20;;;;;;5013979;28;20042;-46
2023/07/28 12:09:53;;;;;;;9.45;2.65;;;22.30;72.80;;;;;;5013392;28;20061;-46
2023/07/28 12:12:22;;;;;;;13.75;2.83;;;22.30;72.40;;;;;;5007498;28;20113;-42
2023/07/28 12:14:51;;;;;;;4.95;2.50;;;22.40;73.20;;;;;;5026091;28;20045;-52
2023/07/28 12:17:28;;;;;;;8.80;2.70;;;22.30;72.60;;;;;;4992554;28;20062;-45
2023/07/28 12:20:11;;;;;;;5.60;2.05;;;22.30;72.10;;;;;;4992654;28;20026;-44
2023/07/28 12:22:39;;;;;;;8.55;2.53;;;22.30;72.30;;;;;;5006948;28;20040;-44
2023/07/28 12:25:05;;;;;;;6.47;2.53;;;22.30;72.50;;;;;;5012998;28;20022;-49
2023/07/28 12:27:31;;;;;;;7.25;2.53;;;22.30;72.20;;;;;;5014143;28;20021;-50
2023/07/28 12:29:57;;;;;;;6.63;2.85;;;22.30;72.30;;;;;;5015723;28;20079;-45
2023/07/28 12:32:23;;;;;;;4.88;2.50;;;22.30;72.00;;;;;;5016670;28;20045;-50
2023/07/28 12:34:50;;;;;;;11.73;3.70;;;22.30;72.00;;;;;;4996851;28;20037;-47